Leon — D5BH4 — position and weather

sailwx.info

Track history (hours):
 
Tides and Currents Weather Stations Pressure Air Temp Water Temp Dewpoint Dewpoint Depression Visibility Wind Speed Wind Dir Waves Ship Positions

Leon

Last reported at 2015-Mar-30 00:24 UTC. Time now 2015-Mar-30 01:08 UTC.
Position N 51°03' E 002°02'.

Length 95 m; draft 6.2 m.

Type: Ship (hazmat cat C). MMSI: 636015519.

Date/timePositionNaut miles runAvg speedWind from/ knotsBaromVisibWave heightAir tempDewpointWater temp
2015-Mar-30 00:24N 51°03' E 002°02'8 9.2
2015-Mar-29 23:33N 51°04' E 002°14'4 4.4
2015-Mar-29 22:32N 51°03' E 002°21'1 1.3
2015-Mar-29 21:32N 51°03' E 002°19'0 0.0
2015-Mar-29 20:32N 51°03' E 002°19'0 0.0
2015-Mar-29 19:33N 51°03' E 002°19'0 0.0
2015-Mar-29 18:31N 51°03' E 002°19'0 0.0
2015-Mar-29 17:33N 51°03' E 002°19'0 0.0
2015-Mar-29 16:32N 51°03' E 002°19'0 0.0
2015-Mar-29 15:33N 51°03' E 002°19'0 0.0
2015-Mar-29 14:32N 51°03' E 002°19'0 0.0
2015-Mar-29 13:32N 51°03' E 002°19'0 0.0
2015-Mar-29 12:28N 51°03' E 002°19'0 0.0
2015-Mar-29 11:32N 51°03' E 002°19'0 0.0
2015-Mar-29 10:33N 51°03' E 002°19'1 0.8
2015-Mar-29 09:33N 51°03' E 002°21'0 0.0
2015-Mar-29 08:32N 51°03' E 002°21'7 7.1
2015-Mar-29 07:33N 51°03' E 002°09'1211.4
2015-Mar-29 06:31N 51°02' E 001°51'4 4.4
2015-Mar-29 05:32N 51°02' E 001°44'7 6.9
2015-Mar-29 04:33N 51°08' E 001°39'7 6.7
2015-Mar-29 03:33N 51°13' E 001°46'8 7.8
2015-Mar-29 02:33N 51°19' E 001°54'8 7.7
2015-Mar-29 01:33N 51°25' E 002°02'9 7.5
2015-Mar-29 00:19N 51°21' E 002°16'5 6.8
2015-Mar-28 23:33N 51°22' E 002°24'7 6.7
2015-Mar-28 22:33N 51°23' E 002°35'7 6.5
2015-Mar-28 21:33N 51°22' E 002°45'7 7.4
2015-Mar-28 20:33N 51°22' E 002°57'18 7.5
2015-Mar-28 18:05N 51°25' E 003°26'4 7.2
2015-Mar-28 17:33N 51°26' E 003°32'7 6.4
2015-Mar-28 16:30N 51°28' E 003°42'0 0.0
2015-Mar-28 15:24N 51°28' E 003°42'0 0.0
2015-Mar-28 14:24N 51°28' E 003°42'0 0.0
2015-Mar-28 13:06N 51°28' E 003°42'0 0.0
2015-Mar-28 12:12N 51°28' E 003°42'0 0.0
2015-Mar-28 11:18N 51°28' E 003°42'0 0.0
2015-Mar-28 10:30N 51°28' E 003°42'0 0.0
2015-Mar-28 09:24N 51°28' E 003°42'0 0.0
2015-Mar-28 08:27N 51°28' E 003°42'0 0.0
2015-Mar-28 07:18N 51°28' E 003°42'0 0.0
2015-Mar-28 04:18N 51°28' E 003°42'0 0.0
2015-Mar-28 03:30N 51°28' E 003°42'0 0.0
2015-Mar-28 02:30N 51°28' E 003°42'0 0.0
2015-Mar-28 01:30N 51°28' E 003°42'0 0.0
2015-Mar-28 00:30N 51°28' E 003°42'0 0.0
2015-Mar-27 23:30N 51°28' E 003°42'0 0.0
2015-Mar-27 22:30N 51°28' E 003°42'0 0.0
2015-Mar-27 21:24N 51°28' E 003°42'0 0.0
2015-Mar-27 20:30N 51°28' E 003°42'0 0.0
2015-Mar-27 19:30N 51°28' E 003°42'0 0.0
2015-Mar-27 18:24N 51°28' E 003°42'0 0.0
2015-Mar-27 17:30N 51°28' E 003°42'0 0.0
2015-Mar-27 16:24N 51°28' E 003°42'0 0.0
2015-Mar-27 15:30N 51°28' E 003°42'0 0.0
2015-Mar-27 14:30N 51°28' E 003°42'0 0.0
2015-Mar-27 13:30N 51°28' E 003°42'4 4.4
2015-Mar-27 12:33N 51°26' E 003°36'9 9.2
2015-Mar-27 11:33N 51°24' E 003°22'10 8.9
2015-Mar-27 10:29N 51°22' E 003°07'9 9.8
2015-Mar-27 09:33N 51°22' E 002°52'1010.4
2015-Mar-27 08:33N 51°21' E 002°36'3 2.7
2015-Mar-27 07:33N 51°20' E 002°32'0 0.0
2015-Mar-27 06:33N 51°20' E 002°32'0 0.0
2015-Mar-27 05:30N 51°20' E 002°32'0 0.0
2015-Mar-27 04:33N 51°20' E 002°32'0 0.0
2015-Mar-27 03:33N 51°20' E 002°32'0 0.1
2015-Mar-27 02:30N 51°20' E 002°32'0 0.1
2015-Mar-27 01:30N 51°20' E 002°32'0 0.0
2015-Mar-27 00:33N 51°20' E 002°32'0 0.1
2015-Mar-26 23:33N 51°20' E 002°32'0 0.1
2015-Mar-26 22:33N 51°20' E 002°32'0 0.0
2015-Mar-26 21:30N 51°20' E 002°32'0 0.0
2015-Mar-26 20:33N 51°20' E 002°32'0 0.0
2015-Mar-26 19:30N 51°20' E 002°32'0 0.0
2015-Mar-26 18:33N 51°20' E 002°32'0 0.0
2015-Mar-26 17:30N 51°20' E 002°32'0 0.0
2015-Mar-26 16:33N 51°20' E 002°32'0 0.0
2015-Mar-26 15:30N 51°20' E 002°32'0 0.0
2015-Mar-26 14:33N 51°20' E 002°32'0 0.1
2015-Mar-26 13:33N 51°20' E 002°32'0 0.1
2015-Mar-26 12:34N 51°20' E 002°32'0 0.1
2015-Mar-26 11:30N 51°20' E 002°32'0 0.0
2015-Mar-26 10:28N 51°20' E 002°32'0 0.0
2015-Mar-26 09:33N 51°20' E 002°32'0 0.0
2015-Mar-26 08:33N 51°20' E 002°32'0 0.0
2015-Mar-26 07:33N 51°20' E 002°32'0 0.0
2015-Mar-26 06:33N 51°20' E 002°32'0 0.0
2015-Mar-26 05:33N 51°20' E 002°32'0 0.0
2015-Mar-26 04:30N 51°20' E 002°32'0 0.0
2015-Mar-26 03:33N 51°20' E 002°32'0 0.0
2015-Mar-26 02:33N 51°20' E 002°32'0 0.1
2015-Mar-26 01:31N 51°20' E 002°32'0 0.0
2015-Mar-26 00:30N 51°20' E 002°32'0 0.0
2015-Mar-25 23:33N 51°20' E 002°32'0 0.0
2015-Mar-25 22:25N 51°20' E 002°32'0 0.0
2015-Mar-25 21:31N 51°20' E 002°32'0 0.0
2015-Mar-25 20:33N 51°20' E 002°32'0 0.1
2015-Mar-25 19:31N 51°20' E 002°32'0 0.0
2015-Mar-25 18:33N 51°20' E 002°32'0 0.0
2015-Mar-25 17:30N 51°20' E 002°32'0 0.0
2015-Mar-25 16:30N 51°20' E 002°32'0 0.0
2015-Mar-25 15:33N 51°20' E 002°32'1 0.6
2015-Mar-25 14:33N 51°19' E 002°32'6 6.2
2015-Mar-25 13:33N 51°19' E 002°22'9 9.0
2015-Mar-25 12:33N 51°15' E 002°10'8 8.2
2015-Mar-25 11:33N 51°10' E 001°58'8 7.7
2015-Mar-25 10:34N 51°07' E 001°48'5 5.2
2015-Mar-25 09:33N 51°02' E 001°51'1312.5
2015-Mar-25 08:30N 51°03' E 002°11'6 6.0
2015-Mar-25 07:32N 51°03' E 002°20'1 0.7
2015-Mar-25 06:27N 51°03' E 002°19'0 0.0
2015-Mar-25 05:27N 51°03' E 002°19'0 0.0
2015-Mar-25 04:28N 51°03' E 002°19'0 0.0
2015-Mar-25 03:33N 51°03' E 002°19'0 0.0
2015-Mar-25 02:33N 51°03' E 002°19'0 0.0
2015-Mar-25 01:30N 51°03' E 002°19'0 0.0
2015-Mar-25 00:24N 51°03' E 002°19'0 0.0
2015-Mar-24 23:33N 51°03' E 002°19'0 0.0
2015-Mar-24 22:31N 51°03' E 002°19'0 0.0
2015-Mar-24 21:33N 51°03' E 002°19'0 0.0
2015-Mar-24 20:33N 51°03' E 002°19'1 1.3
2015-Mar-24 19:32N 51°03' E 002°21'5 5.1
2015-Mar-24 18:33N 51°04' E 002°13'1110.6
2015-Mar-24 17:30N 51°03' E 001°56'5 5.1
2015-Mar-24 16:31N 51°02' E 001°48'8 7.8
2015-Mar-24 15:33N 51°03' E 001°36'2 2.4
2015-Mar-24 14:34N 51°05' E 001°35'7 7.2
2015-Mar-24 13:33N 51°11' E 001°43'1110.6
2015-Mar-24 12:33N 51°19' E 001°54'9 9.4
2015-Mar-24 11:33N 51°23' E 002°07'1110.3
2015-Mar-24 10:30N 51°22' E 002°25'6 6.0
2015-Mar-24 09:31N 51°20' E 002°33'0 0.1
2015-Mar-24 08:33N 51°20' E 002°33'0 0.0
2015-Mar-24 07:33N 51°20' E 002°33'0 0.1
2015-Mar-24 06:33N 51°20' E 002°33'0 0.0
2015-Mar-24 05:30N 51°20' E 002°34'0 0.0
2015-Mar-24 04:33N 51°20' E 002°34'0 0.0
2015-Mar-24 03:33N 51°20' E 002°34'0 0.0
2015-Mar-24 02:33N 51°20' E 002°34'0 0.0
2015-Mar-24 01:33N 51°20' E 002°34'0 0.1
2015-Mar-24 00:33N 51°20' E 002°33'0 0.0
2015-Mar-23 23:30N 51°20' E 002°33'0 0.0
2015-Mar-23 22:33N 51°20' E 002°33'0 0.0
2015-Mar-23 21:27N 51°20' E 002°33'0 0.1
2015-Mar-23 20:31N 51°20' E 002°33'0 0.2
2015-Mar-23 19:28N 51°20' E 002°34'0 0.1
2015-Mar-23 18:31N 51°20' E 002°34'0 0.0
2015-Mar-23 17:33N 51°20' E 002°34'0 0.0
2015-Mar-23 16:31N 51°20' E 002°34'0 0.0
2015-Mar-23 15:31N 51°20' E 002°34'0 0.0
2015-Mar-23 14:28N 51°20' E 002°34'0 0.0
2015-Mar-23 13:31N 51°20' E 002°34'0 0.1
2015-Mar-23 12:31N 51°20' E 002°34'0 0.1
2015-Mar-23 11:31N 51°20' E 002°33'0 0.0
2015-Mar-23 10:31N 51°20' E 002°33'0 0.0
2015-Mar-23 09:31N 51°20' E 002°33'0 0.0
2015-Mar-23 08:31N 51°20' E 002°33'0 0.0
2015-Mar-23 07:31N 51°20' E 002°33'0 0.1
2015-Mar-23 06:28N 51°20' E 002°34'0 0.0
2015-Mar-23 05:31N 51°20' E 002°34'0 0.0
2015-Mar-23 04:31N 51°20' E 002°34'0 0.0
2015-Mar-23 03:31N 51°20' E 002°34'0 0.0
2015-Mar-23 02:31N 51°20' E 002°34'0 0.0
2015-Mar-23 01:31N 51°20' E 002°34'0 0.0
2015-Mar-23 00:28N 51°20' E 002°34'0 0.1
2015-Mar-22 23:31N 51°20' E 002°34'0 0.0
2015-Mar-22 22:22N 51°20' E 002°33'0 0.0
2015-Mar-22 21:22N 51°20' E 002°33'1 0.0
2015-Mar-22 04:22N 51°20' E 002°33'0 0.0
2015-Mar-22 03:13N 51°20' E 002°33'17 5.9
2015-Mar-22 00:21N 51°19' E 002°05'4 5.5
2015-Mar-21 23:33N 51°22' E 002°00'9 9.0
2015-Mar-21 22:33N 51°29' E 001°51'8 8.5
2015-Mar-21 21:34N 51°37' E 001°46'1010.1
2015-Mar-21 20:33N 51°47' E 001°44'10 9.6
2015-Mar-21 19:33N 51°56' E 001°45'9 9.1
2015-Mar-21 18:33N 52°05' E 001°50'8 7.7
2015-Mar-21 17:33N 52°12' E 001°56'7 6.6
2015-Mar-21 16:32N 52°18' E 002°00'5 5.5
2015-Mar-21 15:33N 52°23' E 002°03'6 5.5
2015-Mar-21 14:29N 52°28' E 002°08'6 5.7
2015-Mar-21 13:31N 52°33' E 002°10'20 8.1
2015-Mar-21 11:05N 52°52' E 002°02'510.2
2015-Mar-21 10:34N 52°55' E 001°54'1110.9
2015-Mar-21 09:34N 53°00' E 001°38'9 9.4
2015-Mar-21 08:34N 53°06' E 001°25'53 8.8
2015-Mar-21 02:30N 53°49' E 000°34'8 8.7
2015-Mar-21 01:33N 53°56' E 000°28'7 7.5
2015-Mar-21 00:33N 54°02' E 000°19'7 7.2
2015-Mar-20 23:33N 54°06' E 000°09'7 6.8
2015-Mar-20 22:33N 54°11' E 000°02'6 6.4
2015-Mar-20 21:33N 54°16' W 000°05'7 6.6
2015-Mar-20 20:33N 54°22' W 000°11'6 6.5
2015-Mar-20 19:33N 54°27' W 000°17'7 6.8
2015-Mar-20 18:33N 54°32' W 000°25'8 8.2
2015-Mar-20 17:33N 54°38' W 000°35'9 8.5
2015-Mar-20 16:29N 54°40' W 000°51'8 9.1
2015-Mar-20 15:33N 54°41' W 001°05'4 2.2
2015-Mar-20 13:33N 54°38' W 001°09'0 0.0
2015-Mar-20 12:31N 54°38' W 001°09'0 0.0
2015-Mar-20 11:33N 54°38' W 001°09'0 0.0
2015-Mar-20 10:32N 54°38' W 001°09'0 0.0
2015-Mar-20 09:33N 54°38' W 001°09'0 0.0
2015-Mar-20 08:33N 54°38' W 001°09'0 0.0
2015-Mar-20 07:33N 54°38' W 001°09'0 0.0
2015-Mar-20 06:32N 54°38' W 001°09'  
Track history (hours):
 
Tides and Currents Weather Stations Pressure Air Temp Water Temp Dewpoint Dewpoint Depression Visibility Wind Speed Wind Dir Waves Ship Positions

Leon

Last reported at 2015-Mar-30 00:24 UTC. Time now 2015-Mar-30 01:08 UTC.
Position N 51°03' E 002°02'.

Length 95 m; draft 6.2 m.

Type: Ship (hazmat cat C). MMSI: 636015519.

Date/timePositionNaut miles runAvg speedWind from/ knotsBaromVisibWave heightAir tempDewpointWater temp
2015-Mar-30 00:24N 51°03' E 002°02'8 9.2
2015-Mar-29 23:33N 51°04' E 002°14'4 4.4
2015-Mar-29 22:32N 51°03' E 002°21'1 1.3
2015-Mar-29 21:32N 51°03' E 002°19'0 0.0
2015-Mar-29 20:32N 51°03' E 002°19'0 0.0
2015-Mar-29 19:33N 51°03' E 002°19'0 0.0
2015-Mar-29 18:31N 51°03' E 002°19'0 0.0
2015-Mar-29 17:33N 51°03' E 002°19'0 0.0
2015-Mar-29 16:32N 51°03' E 002°19'0 0.0
2015-Mar-29 15:33N 51°03' E 002°19'0 0.0
2015-Mar-29 14:32N 51°03' E 002°19'0 0.0
2015-Mar-29 13:32N 51°03' E 002°19'0 0.0
2015-Mar-29 12:28N 51°03' E 002°19'0 0.0
2015-Mar-29 11:32N 51°03' E 002°19'0 0.0
2015-Mar-29 10:33N 51°03' E 002°19'1 0.8
2015-Mar-29 09:33N 51°03' E 002°21'0 0.0
2015-Mar-29 08:32N 51°03' E 002°21'7 7.1
2015-Mar-29 07:33N 51°03' E 002°09'1211.4
2015-Mar-29 06:31N 51°02' E 001°51'4 4.4
2015-Mar-29 05:32N 51°02' E 001°44'7 6.9
2015-Mar-29 04:33N 51°08' E 001°39'7 6.7
2015-Mar-29 03:33N 51°13' E 001°46'8 7.8
2015-Mar-29 02:33N 51°19' E 001°54'8 7.7
2015-Mar-29 01:33N 51°25' E 002°02'9 7.5
2015-Mar-29 00:19N 51°21' E 002°16'5 6.8
2015-Mar-28 23:33N 51°22' E 002°24'7 6.7
2015-Mar-28 22:33N 51°23' E 002°35'7 6.5
2015-Mar-28 21:33N 51°22' E 002°45'7 7.4
2015-Mar-28 20:33N 51°22' E 002°57'18 7.5
2015-Mar-28 18:05N 51°25' E 003°26'4 7.2
2015-Mar-28 17:33N 51°26' E 003°32'7 6.4
2015-Mar-28 16:30N 51°28' E 003°42'0 0.0
2015-Mar-28 15:24N 51°28' E 003°42'0 0.0
2015-Mar-28 14:24N 51°28' E 003°42'0 0.0
2015-Mar-28 13:06N 51°28' E 003°42'0 0.0
2015-Mar-28 12:12N 51°28' E 003°42'0 0.0
2015-Mar-28 11:18N 51°28' E 003°42'0 0.0
2015-Mar-28 10:30N 51°28' E 003°42'0 0.0
2015-Mar-28 09:24N 51°28' E 003°42'0 0.0
2015-Mar-28 08:27N 51°28' E 003°42'0 0.0
2015-Mar-28 07:18N 51°28' E 003°42'0 0.0
2015-Mar-28 04:18N 51°28' E 003°42'0 0.0
2015-Mar-28 03:30N 51°28' E 003°42'0 0.0
2015-Mar-28 02:30N 51°28' E 003°42'0 0.0
2015-Mar-28 01:30N 51°28' E 003°42'0 0.0
2015-Mar-28 00:30N 51°28' E 003°42'0 0.0
2015-Mar-27 23:30N 51°28' E 003°42'0 0.0
2015-Mar-27 22:30N 51°28' E 003°42'0 0.0
2015-Mar-27 21:24N 51°28' E 003°42'0 0.0
2015-Mar-27 20:30N 51°28' E 003°42'0 0.0
2015-Mar-27 19:30N 51°28' E 003°42'0 0.0
2015-Mar-27 18:24N 51°28' E 003°42'0 0.0
2015-Mar-27 17:30N 51°28' E 003°42'0 0.0
2015-Mar-27 16:24N 51°28' E 003°42'0 0.0
2015-Mar-27 15:30N 51°28' E 003°42'0 0.0
2015-Mar-27 14:30N 51°28' E 003°42'0 0.0
2015-Mar-27 13:30N 51°28' E 003°42'4 4.4
2015-Mar-27 12:33N 51°26' E 003°36'9 9.2
2015-Mar-27 11:33N 51°24' E 003°22'10 8.9
2015-Mar-27 10:29N 51°22' E 003°07'9 9.8
2015-Mar-27 09:33N 51°22' E 002°52'1010.4
2015-Mar-27 08:33N 51°21' E 002°36'3 2.7
2015-Mar-27 07:33N 51°20' E 002°32'0 0.0
2015-Mar-27 06:33N 51°20' E 002°32'0 0.0
2015-Mar-27 05:30N 51°20' E 002°32'0 0.0
2015-Mar-27 04:33N 51°20' E 002°32'0 0.0
2015-Mar-27 03:33N 51°20' E 002°32'0 0.1
2015-Mar-27 02:30N 51°20' E 002°32'0 0.1
2015-Mar-27 01:30N 51°20' E 002°32'0 0.0
2015-Mar-27 00:33N 51°20' E 002°32'0 0.1
2015-Mar-26 23:33N 51°20' E 002°32'0 0.1
2015-Mar-26 22:33N 51°20' E 002°32'0 0.0
2015-Mar-26 21:30N 51°20' E 002°32'0 0.0
2015-Mar-26 20:33N 51°20' E 002°32'0 0.0
2015-Mar-26 19:30N 51°20' E 002°32'0 0.0
2015-Mar-26 18:33N 51°20' E 002°32'0 0.0
2015-Mar-26 17:30N 51°20' E 002°32'0 0.0
2015-Mar-26 16:33N 51°20' E 002°32'0 0.0
2015-Mar-26 15:30N 51°20' E 002°32'0 0.0
2015-Mar-26 14:33N 51°20' E 002°32'0 0.1
2015-Mar-26 13:33N 51°20' E 002°32'0 0.1
2015-Mar-26 12:34N 51°20' E 002°32'0 0.1
2015-Mar-26 11:30N 51°20' E 002°32'0 0.0
2015-Mar-26 10:28N 51°20' E 002°32'0 0.0
2015-Mar-26 09:33N 51°20' E 002°32'0 0.0
2015-Mar-26 08:33N 51°20' E 002°32'0 0.0
2015-Mar-26 07:33N 51°20' E 002°32'0 0.0
2015-Mar-26 06:33N 51°20' E 002°32'0 0.0
2015-Mar-26 05:33N 51°20' E 002°32'0 0.0
2015-Mar-26 04:30N 51°20' E 002°32'0 0.0
2015-Mar-26 03:33N 51°20' E 002°32'0 0.0
2015-Mar-26 02:33N 51°20' E 002°32'0 0.1
2015-Mar-26 01:31N 51°20' E 002°32'0 0.0
2015-Mar-26 00:30N 51°20' E 002°32'0 0.0
2015-Mar-25 23:33N 51°20' E 002°32'0 0.0
2015-Mar-25 22:25N 51°20' E 002°32'0 0.0
2015-Mar-25 21:31N 51°20' E 002°32'0 0.0
2015-Mar-25 20:33N 51°20' E 002°32'0 0.1
2015-Mar-25 19:31N 51°20' E 002°32'0 0.0
2015-Mar-25 18:33N 51°20' E 002°32'0 0.0
2015-Mar-25 17:30N 51°20' E 002°32'0 0.0
2015-Mar-25 16:30N 51°20' E 002°32'0 0.0
2015-Mar-25 15:33N 51°20' E 002°32'1 0.6
2015-Mar-25 14:33N 51°19' E 002°32'6 6.2
2015-Mar-25 13:33N 51°19' E 002°22'9 9.0
2015-Mar-25 12:33N 51°15' E 002°10'8 8.2
2015-Mar-25 11:33N 51°10' E 001°58'8 7.7
2015-Mar-25 10:34N 51°07' E 001°48'5 5.2
2015-Mar-25 09:33N 51°02' E 001°51'1312.5
2015-Mar-25 08:30N 51°03' E 002°11'6 6.0
2015-Mar-25 07:32N 51°03' E 002°20'1 0.7
2015-Mar-25 06:27N 51°03' E 002°19'0 0.0
2015-Mar-25 05:27N 51°03' E 002°19'0 0.0
2015-Mar-25 04:28N 51°03' E 002°19'0 0.0
2015-Mar-25 03:33N 51°03' E 002°19'0 0.0
2015-Mar-25 02:33N 51°03' E 002°19'0 0.0
2015-Mar-25 01:30N 51°03' E 002°19'0 0.0
2015-Mar-25 00:24N 51°03' E 002°19'0 0.0
2015-Mar-24 23:33N 51°03' E 002°19'0 0.0
2015-Mar-24 22:31N 51°03' E 002°19'0 0.0
2015-Mar-24 21:33N 51°03' E 002°19'0 0.0
2015-Mar-24 20:33N 51°03' E 002°19'1 1.3
2015-Mar-24 19:32N 51°03' E 002°21'5 5.1
2015-Mar-24 18:33N 51°04' E 002°13'1110.6
2015-Mar-24 17:30N 51°03' E 001°56'5 5.1
2015-Mar-24 16:31N 51°02' E 001°48'8 7.8
2015-Mar-24 15:33N 51°03' E 001°36'2 2.4
2015-Mar-24 14:34N 51°05' E 001°35'7 7.2
2015-Mar-24 13:33N 51°11' E 001°43'1110.6
2015-Mar-24 12:33N 51°19' E 001°54'9 9.4
2015-Mar-24 11:33N 51°23' E 002°07'1110.3
2015-Mar-24 10:30N 51°22' E 002°25'6 6.0
2015-Mar-24 09:31N 51°20' E 002°33'0 0.1
2015-Mar-24 08:33N 51°20' E 002°33'0 0.0
2015-Mar-24 07:33N 51°20' E 002°33'0 0.1
2015-Mar-24 06:33N 51°20' E 002°33'0 0.0
2015-Mar-24 05:30N 51°20' E 002°34'0 0.0
2015-Mar-24 04:33N 51°20' E 002°34'0 0.0
2015-Mar-24 03:33N 51°20' E 002°34'0 0.0
2015-Mar-24 02:33N 51°20' E 002°34'0 0.0
2015-Mar-24 01:33N 51°20' E 002°34'0 0.1
2015-Mar-24 00:33N 51°20' E 002°33'0 0.0
2015-Mar-23 23:30N 51°20' E 002°33'0 0.0
2015-Mar-23 22:33N 51°20' E 002°33'0 0.0
2015-Mar-23 21:27N 51°20' E 002°33'0 0.1
2015-Mar-23 20:31N 51°20' E 002°33'0 0.2
2015-Mar-23 19:28N 51°20' E 002°34'0 0.1
2015-Mar-23 18:31N 51°20' E 002°34'0 0.0
2015-Mar-23 17:33N 51°20' E 002°34'0 0.0
2015-Mar-23 16:31N 51°20' E 002°34'0 0.0
2015-Mar-23 15:31N 51°20' E 002°34'0 0.0
2015-Mar-23 14:28N 51°20' E 002°34'0 0.0
2015-Mar-23 13:31N 51°20' E 002°34'0 0.1
2015-Mar-23 12:31N 51°20' E 002°34'0 0.1
2015-Mar-23 11:31N 51°20' E 002°33'0 0.0
2015-Mar-23 10:31N 51°20' E 002°33'0 0.0
2015-Mar-23 09:31N 51°20' E 002°33'0 0.0
2015-Mar-23 08:31N 51°20' E 002°33'0 0.0
2015-Mar-23 07:31N 51°20' E 002°33'0 0.1
2015-Mar-23 06:28N 51°20' E 002°34'0 0.0
2015-Mar-23 05:31N 51°20' E 002°34'0 0.0
2015-Mar-23 04:31N 51°20' E 002°34'0 0.0
2015-Mar-23 03:31N 51°20' E 002°34'0 0.0
2015-Mar-23 02:31N 51°20' E 002°34'0 0.0
2015-Mar-23 01:31N 51°20' E 002°34'0 0.0
2015-Mar-23 00:28N 51°20' E 002°34'0 0.1
2015-Mar-22 23:31N 51°20' E 002°34'0 0.0
2015-Mar-22 22:22N 51°20' E 002°33'0 0.0
2015-Mar-22 21:22N 51°20' E 002°33'1 0.0
2015-Mar-22 04:22N 51°20' E 002°33'0 0.0
2015-Mar-22 03:13N 51°20' E 002°33'17 5.9
2015-Mar-22 00:21N 51°19' E 002°05'4 5.5
2015-Mar-21 23:33N 51°22' E 002°00'9 9.0
2015-Mar-21 22:33N 51°29' E 001°51'8 8.5
2015-Mar-21 21:34N 51°37' E 001°46'1010.1
2015-Mar-21 20:33N 51°47' E 001°44'10 9.6
2015-Mar-21 19:33N 51°56' E 001°45'9 9.1
2015-Mar-21 18:33N 52°05' E 001°50'8 7.7
2015-Mar-21 17:33N 52°12' E 001°56'7 6.6
2015-Mar-21 16:32N 52°18' E 002°00'5 5.5
2015-Mar-21 15:33N 52°23' E 002°03'6 5.5
2015-Mar-21 14:29N 52°28' E 002°08'6 5.7
2015-Mar-21 13:31N 52°33' E 002°10'20 8.1
2015-Mar-21 11:05N 52°52' E 002°02'510.2
2015-Mar-21 10:34N 52°55' E 001°54'1110.9
2015-Mar-21 09:34N 53°00' E 001°38'9 9.4
2015-Mar-21 08:34N 53°06' E 001°25'53 8.8
2015-Mar-21 02:30N 53°49' E 000°34'8 8.7
2015-Mar-21 01:33N 53°56' E 000°28'7 7.5
2015-Mar-21 00:33N 54°02' E 000°19'7 7.2
2015-Mar-20 23:33N 54°06' E 000°09'7 6.8
2015-Mar-20 22:33N 54°11' E 000°02'6 6.4
2015-Mar-20 21:33N 54°16' W 000°05'7 6.6
2015-Mar-20 20:33N 54°22' W 000°11'6 6.5
2015-Mar-20 19:33N 54°27' W 000°17'7 6.8
2015-Mar-20 18:33N 54°32' W 000°25'8 8.2
2015-Mar-20 17:33N 54°38' W 000°35'9 8.5
2015-Mar-20 16:29N 54°40' W 000°51'8 9.1
2015-Mar-20 15:33N 54°41' W 001°05'4 2.2
2015-Mar-20 13:33N 54°38' W 001°09'0 0.0
2015-Mar-20 12:31N 54°38' W 001°09'0 0.0
2015-Mar-20 11:33N 54°38' W 001°09'0 0.0
2015-Mar-20 10:32N 54°38' W 001°09'0 0.0
2015-Mar-20 09:33N 54°38' W 001°09'0 0.0
2015-Mar-20 08:33N 54°38' W 001°09'0 0.0
2015-Mar-20 07:33N 54°38' W 001°09'0 0.0
2015-Mar-20 06:32N 54°38' W 001°09'  

Dump ship's entire track history